Map

Track Data

SID SEASON NUMBER BASIN SUBBASIN NAME ISO_TIME NATURE LAT LON WMO_WIND WMO_PRES WMO_AGENCY TRACK_TYPE DIST2LAND LANDFALL IFLAG USA_AGENCY USA_ATCF_ID USA_LAT USA_LON USA_RECORD USA_STATUS USA_WIND USA_PRES USA_SSHS USA_R34_NE USA_R34_SE USA_R34_SW USA_R34_NW USA_R50_NE USA_R50_SE USA_R50_SW USA_R50_NW USA_R64_NE USA_R64_SE USA_R64_SW USA_R64_NW USA_POCI USA_ROCI USA_RMW USA_EYE TOKYO_LAT TOKYO_LON TOKYO_GRADE TOKYO_WIND TOKYO_PRES TOKYO_R50_DIR TOKYO_R50_LONG TOKYO_R50_SHORT TOKYO_R30_DIR TOKYO_R30_LONG TOKYO_R30_SHORT TOKYO_LAND CMA_LAT CMA_LON CMA_CAT CMA_WIND CMA_PRES HKO_LAT HKO_LON HKO_CAT HKO_WIND HKO_PRES NEWDELHI_LAT NEWDELHI_LON NEWDELHI_GRADE NEWDELHI_WIND NEWDELHI_PRES NEWDELHI_CI NEWDELHI_DP NEWDELHI_POCI REUNION_LAT REUNION_LON REUNION_TYPE REUNION_WIND REUNION_PRES REUNION_TNUM REUNION_CI REUNION_RMW REUNION_R34_NE REUNION_R34_SE REUNION_R34_SW REUNION_R34_NW REUNION_R50_NE REUNION_R50_SE REUNION_R50_SW REUNION_R50_NW REUNION_R64_NE REUNION_R64_SE REUNION_R64_SW REUNION_R64_NW BOM_LAT BOM_LON BOM_TYPE BOM_WIND BOM_PRES BOM_TNUM BOM_CI BOM_RMW BOM_R34_NE BOM_R34_SE BOM_R34_SW BOM_R34_NW BOM_R50_NE BOM_R50_SE BOM_R50_SW BOM_R50_NW BOM_R64_NE BOM_R64_SE BOM_R64_SW BOM_R64_NW BOM_ROCI BOM_POCI BOM_EYE BOM_POS_METHOD BOM_PRES_METHOD NADI_LAT NADI_LON NADI_CAT NADI_WIND NADI_PRES WELLINGTON_LAT WELLINGTON_LON WELLINGTON_WIND WELLINGTON_PRES DS824_LAT DS824_LON DS824_STAGE DS824_WIND DS824_PRES TD9636_LAT TD9636_LON TD9636_STAGE TD9636_WIND TD9636_PRES TD9635_LAT TD9635_LON TD9635_WIND TD9635_PRES TD9635_ROCI NEUMANN_LAT NEUMANN_LON NEUMANN_CLASS NEUMANN_WIND NEUMANN_PRES MLC_LAT MLC_LON MLC_CLASS MLC_WIND MLC_PRES USA_GUST BOM_GUST BOM_GUST_PER REUNION_GUST REUNION_GUST_PER USA_SEAHGT USA_SEARAD_NE USA_SEARAD_SE USA_SEARAD_SW USA_SEARAD_NW STORM_SPEED STORM_DIR
1884197N20088 1884 19 NI BB NOT_NAMED 1884-07-15 00:00:00 TS 19.5000 87.8000 main 145 122 _________O____ -1 19.5000 87.8000 TC 30 5 296
1884197N20088 1884 19 NI BB NOT_NAMED 1884-07-15 03:00:00 TS 19.6067 87.5684 main 122 91 _________PO___ -1 19.6601 87.4527 TC 30 19.5000 87.8000 1 6 294
1884197N20088 1884 19 NI BB NOT_NAMED 1884-07-15 06:00:00 TS 19.7340 87.2365 main 85 56 _________OP___ -1 19.8000 87.1000 TC 30 19.6350 87.4411 1 7 291
1884197N20088 1884 19 NI BB NOT_NAMED 1884-07-15 09:00:00 TS 19.8467 86.8895 main 56 23 _________PP___ -1 19.9075 86.7424 TC 30 19.7657 87.0855 1 7 289
1884197N20088 1884 19 NI BB NOT_NAMED 1884-07-15 12:00:00 TS 19.9443 86.5686 main 23 0 _________OP___ -1 20.0000 86.4000 TC 30 19.8886 86.7372 1 6 289
1884197N20088 1884 19 NI BB NOT_NAMED 1884-07-15 15:00:00 TS 20.0537 86.2500 main 0 0 _________PO___ -1 20.1074 86.1000 TC 30 20.0000 86.4000 1 6 289
1884197N20088 1884 19 NI BB NOT_NAMED 1884-07-15 18:00:00 TS 20.1486 85.9379 main 0 0 _________OP___ -1 20.2000 85.8000 TC 30 20.0971 86.0758 1 6 286
1884197N20088 1884 19 NI BB NOT_NAMED 1884-07-15 21:00:00 TS 20.2222 85.6112 main 0 0 _________PP___ -1 20.2649 85.4650 TC 30 20.1795 85.7573 1 6 281
1884197N20088 1884 19 NI BB NOT_NAMED 1884-07-16 00:00:00 TS 20.2736 85.2676 main 0 0 _________OP___ -1 20.3000 85.1000 TC 30 20.2471 85.4352 1 7 277
1884197N20088 1884 19 NI BB NOT_NAMED 1884-07-16 03:00:00 TS 20.3000 84.8999 main 0 0 _________PO___ -1 20.3000 84.6999 TC 30 20.3000 85.1000 1 7 274
1884197N20088 1884 19 NI BB NOT_NAMED 1884-07-16 06:00:00 TS 20.3177 84.5155 main 0 0 _________OP___ -1 20.3000 84.3000 TC 30 20.3353 84.7310 1 7 274
1884197N20088 1884 19 NI BB NOT_NAMED 1884-07-16 09:00:00 TS 20.3500 84.1461 main 0 0 _________PP___ -1 20.3424 83.9425 TC 30 20.3575 84.3497 1 7 276
1884197N20088 1884 19 NI BB NOT_NAMED 1884-07-16 12:00:00 TS 20.3880 83.7843 main 0 0 _________OP___ -1 20.4000 83.6000 TC 30 20.3760 83.9685 1 7 276
1884197N20088 1884 19 NI BB NOT_NAMED 1884-07-16 15:00:00 TS 20.4250 83.4212 main 0 0 _________PO___ -1 20.4500 83.2425 TC 30 20.4000 83.6000 1 7 277
1884197N20088 1884 19 NI BB NOT_NAMED 1884-07-16 18:00:00 TS 20.4713 83.0742 main 0 0 _________OP___ -1 20.5000 82.9000 TC 30 20.4426 83.2485 1 6 279
1884197N20088 1884 19 NI BB NOT_NAMED 1884-07-16 21:00:00 TS 20.5211 82.7488 main 0 0 _________PP___ -1 20.5499 82.5850 TC 30 20.4923 82.9126 1 6 280
1884197N20088 1884 19 NI BB NOT_NAMED 1884-07-17 00:00:00 TS 20.5729 82.4477 main 0 0 _________OP___ -1 20.6000 82.3000 TC 30 20.5458 82.5953 1 6 281
1884197N20088 1884 19 NI BB NOT_NAMED 1884-07-17 03:00:00 TS 20.6250 82.1712 main 0 0 _________PO___ -1 20.6499 82.0425 TC 30 20.6000 82.3000 1 5 281
1884197N20088 1884 19 NI BB NOT_NAMED 1884-07-17 06:00:00 TS 20.6688 81.9081 main 0 0 _________OP___ -1 20.7000 81.8000 TC 30 20.6376 82.0161 1 5 280
1884197N20088 1884 19 NI BB NOT_NAMED 1884-07-17 09:00:00 TS 20.7099 81.6486 main 0 0 _________PP___ -1 20.7425 81.5425 TC 30 20.6773 81.7548 1 5 282
1884197N20088 1884 19 NI BB NOT_NAMED 1884-07-17 12:00:00 TS 20.7642 81.4081 main 0 0 _________OP___ -1 20.8000 81.3000 TC 30 20.7283 81.5161 1 4 287
1884197N20088 1884 19 NI BB NOT_NAMED 1884-07-17 15:00:00 TS 20.8425 81.1925 main 0 0 _________PO___ -1 20.8850 81.0850 TC 30 20.8000 81.3000 1 4 296
1884197N20088 1884 19 NI BB NOT_NAMED 1884-07-17 18:00:00 TS 20.9422 81.0174 main 0 0 _________OP___ -1 21.0000 80.9000 TC 30 20.8988 81.1055 1 4 306
1884197N20088 1884 19 NI BB NOT_NAMED 1884-07-17 21:00:00 TS 21.0691 80.8537 main 0 0 _________PP___ -1 21.1425 80.7426 TC 30 21.0201 80.9278 1 4 312
1884197N20088 1884 19 NI BB NOT_NAMED 1884-07-18 00:00:00 TS 21.2042 80.7075 main 0 0 _________OP___ -1 21.3000 80.6000 TC 30 21.1564 80.7612 1 3 314
1884197N20088 1884 19 NI BB NOT_NAMED 1884-07-18 03:00:00 NR 21.3000 80.6000 main 0 __________O___ -1 TC 21.3000 80.6000 1 3 314

About IBTrACS Database

This database is a web-friendly format of International Best Track Archive for Climate Stewardship (IBTrACS), a global best track data archive curated by NOAA dating back to 1842.

Updated: 2021-11-26